Terminal Aerodrome Forecast
Issued by NWS

Home | Current Version | Previous Version | Graphics & Text | Print | Product List | Glossary On
Versions: 1 2 3 4 5 6 7 8 9 10 11 12 13 14
000
FTUS45 KGGW 231128
TAFGDV
TAF
KGDV 231128Z 2312/2412 VRB04KT P6SM OVC019
     FM231400 02006KT P6SM VCSH OVC025
     FM232100 06007KT P6SM -SHRA OVC020=

USA.gov is the U.S. government's official web portal to all federal, state and local government web resources and services.